Time;durP1;ratioP1;P1;durP2;ratioP2;P2;SDS_P1;SDS_P2;PMS_P1;PMS_P2;Temp;Humidity;BMP_temperature;BMP_pressure;BME280_temperature;BME280_humidity;BME280_pressure;Samples;Min_cycle;Max_cycle;Signal;HPM_P1;HPM_P2
2021/09/15 00:00:03;;;;;;;13.73;10.80;;;19.50;99.80;;;;;;5030652;28;20474;-83
2021/09/15 00:02:32;;;;;;;12.53;11.17;;;19.50;99.80;;;;;;5045367;28;20470;-84
2021/09/15 00:05:00;;;;;;;12.27;10.67;;;19.50;99.80;;;;;;5042134;28;20475;-84
2021/09/15 00:07:28;;;;;;;13.13;10.83;;;19.50;99.80;;;;;;5042526;28;20866;-84
2021/09/15 00:09:56;;;;;;;14.77;11.47;;;19.50;99.80;;;;;;5033469;28;20483;-84
2021/09/15 00:12:24;;;;;;;12.90;11.07;;;19.50;99.80;;;;;;5034320;28;21065;-84
2021/09/15 00:14:55;;;;;;;16.43;11.77;;;19.60;99.80;;;;;;5036927;28;20511;-83
2021/09/15 00:17:23;;;;;;;13.87;12.37;;;19.60;99.80;;;;;;5039582;28;20477;-84
2021/09/15 00:19:52;;;;;;;13.20;11.80;;;19.60;99.80;;;;;;5041935;28;20461;-84
2021/09/15 00:22:20;;;;;;;13.70;12.27;;;19.60;99.80;;;;;;5045355;28;20470;-83
2021/09/15 00:24:50;;;;;;;12.63;11.20;;;19.60;99.80;;;;;;5040871;28;20467;-83
2021/09/15 00:27:18;;;;;;;15.10;11.77;;;19.60;99.80;;;;;;5039632;28;20485;-84
2021/09/15 00:29:45;;;;;;;13.00;11.67;;;19.60;99.80;;;;;;5036429;28;20480;-83
2021/09/15 00:32:13;;;;;;;14.73;11.80;;;19.60;99.80;;;;;;5040199;28;21570;-84
2021/09/15 00:34:41;;;;;;;12.83;10.87;;;19.50;99.80;;;;;;5041225;28;20474;-83
2021/09/15 00:37:11;;;;;;;13.57;11.23;;;19.50;99.80;;;;;;5045017;28;20480;-83
2021/09/15 00:39:39;;;;;;;14.63;10.67;;;19.40;99.80;;;;;;5041274;28;20482;-84
2021/09/15 00:42:08;;;;;;;13.20;11.37;;;19.40;99.80;;;;;;5034921;28;20879;-83
2021/09/15 00:44:36;;;;;;;13.10;11.10;;;19.40;99.80;;;;;;5031955;28;20467;-84
2021/09/15 00:47:04;;;;;;;14.67;12.13;;;19.30;99.80;;;;;;5042365;28;20467;-84
2021/09/15 00:49:32;;;;;;;12.73;11.20;;;19.30;99.80;;;;;;5028924;28;20487;-83
2021/09/15 00:52:02;;;;;;;14.13;11.23;;;19.30;99.80;;;;;;5034656;28;20472;-83
2021/09/15 00:54:31;;;;;;;13.67;11.20;;;19.20;99.80;;;;;;5037362;28;20546;-83
2021/09/15 00:56:59;;;;;;;14.50;11.90;;;19.20;99.80;;;;;;5034826;28;20455;-83
2021/09/15 00:59:28;;;;;;;12.60;10.90;;;19.20;99.80;;;;;;5037303;28;20475;-84
2021/09/15 01:01:56;;;;;;;14.07;12.50;;;19.10;99.80;;;;;;5048082;28;20846;-84
2021/09/15 01:04:24;;;;;;;14.27;11.53;;;19.00;99.80;;;;;;5042276;28;20537;-84
2021/09/15 01:06:52;;;;;;;15.83;13.17;;;19.00;99.80;;;;;;5044360;28;20459;-83
2021/09/15 01:09:21;;;;;;;14.33;12.53;;;19.00;99.80;;;;;;5037902;28;20496;-83
2021/09/15 01:11:52;;;;;;;13.03;11.70;;;19.00;99.80;;;;;;5036152;28;20490;-83
2021/09/15 01:14:20;;;;;;;14.57;12.27;;;18.90;99.80;;;;;;5034429;28;20460;-83
2021/09/15 01:16:53;;;;;;;16.10;12.73;;;18.90;99.80;;;;;;5035135;28;20464;-83
2021/09/15 01:19:22;;;;;;;19.00;13.23;;;18.80;99.80;;;;;;5027225;28;20476;-83
2021/09/15 01:21:55;;;;;;;14.53;11.67;;;18.80;99.80;;;;;;5026872;28;20468;-83
2021/09/15 01:24:25;;;;;;;16.23;12.47;;;18.90;99.80;;;;;;5025881;28;20455;-83
2021/09/15 01:26:54;;;;;;;15.83;12.77;;;18.90;99.80;;;;;;5027229;28;20472;-84
2021/09/15 01:29:24;;;;;;;14.10;12.10;;;18.90;99.80;;;;;;5032340;28;20533;-83
2021/09/15 01:32:00;;;;;;;14.60;12.50;;;18.80;99.80;;;;;;5020212;28;20478;-83
2021/09/15 01:34:29;;;;;;;13.50;12.10;;;18.80;99.80;;;;;;5057539;28;20478;-84
2021/09/15 01:36:58;;;;;;;16.17;11.80;;;18.80;99.80;;;;;;5040566;28;20969;-83
2021/09/15 01:39:26;;;;;;;13.90;12.03;;;18.80;99.80;;;;;;5038954;28;20470;-83
2021/09/15 01:41:58;;;;;;;13.77;11.83;;;18.80;99.80;;;;;;5027530;28;21111;-84
2021/09/15 01:44:33;;;;;;;14.00;12.50;;;18.80;99.80;;;;;;5031843;28;20463;-84
2021/09/15 01:47:01;;;;;;;14.67;12.90;;;18.80;99.80;;;;;;5028201;28;20474;-83
2021/09/15 01:49:30;;;;;;;14.07;12.40;;;18.80;99.80;;;;;;5042430;28;20472;-84
2021/09/15 01:52:00;;;;;;;14.43;11.67;;;18.80;99.80;;;;;;5029135;28;20541;-83
2021/09/15 01:54:29;;;;;;;13.47;11.97;;;18.80;99.80;;;;;;5035552;28;20475;-83
2021/09/15 01:56:57;;;;;;;15.80;12.70;;;18.90;99.80;;;;;;5028978;28;20483;-84
2021/09/15 01:59:25;;;;;;;14.70;12.03;;;18.90;99.80;;;;;;5022466;28;20554;-84
2021/09/15 02:01:53;;;;;;;18.13;12.87;;;18.90;99.80;;;;;;5055743;28;21330;-83
2021/09/15 02:04:22;;;;;;;14.50;11.70;;;18.90;99.80;;;;;;5045580;28;20455;-83
2021/09/15 02:06:50;;;;;;;16.30;11.77;;;18.90;99.80;;;;;;5047618;28;20538;-83
2021/09/15 02:09:19;;;;;;;27.13;12.37;;;18.90;99.80;;;;;;5046899;28;20472;-84
2021/09/15 02:11:47;;;;;;;15.43;12.40;;;18.80;99.80;;;;;;5049434;28;20451;-83
2021/09/15 02:14:15;;;;;;;13.93;12.53;;;18.70;99.80;;;;;;5045009;28;20464;-84
2021/09/15 02:16:43;;;;;;;14.00;12.47;;;18.70;99.80;;;;;;5044646;28;20538;-84
2021/09/15 02:19:11;;;;;;;14.27;12.77;;;18.60;99.80;;;;;;5049821;28;20463;-83
2021/09/15 02:21:40;;;;;;;16.43;12.07;;;18.60;99.80;;;;;;5047129;28;20507;-84
2021/09/15 02:24:09;;;;;;;18.30;13.90;;;18.60;99.80;;;;;;5054739;28;20470;-83
2021/09/15 02:26:38;;;;;;;15.50;12.90;;;18.60;99.80;;;;;;5056727;28;20455;-83
2021/09/15 02:29:06;;;;;;;16.20;13.93;;;18.50;99.80;;;;;;5051140;28;20456;-83
2021/09/15 02:31:34;;;;;;;14.00;12.30;;;18.50;99.80;;;;;;5053325;28;20451;-83
2021/09/15 02:34:02;;;;;;;15.67;12.97;;;18.50;99.80;;;;;;5022679;28;20475;-84
2021/09/15 02:36:30;;;;;;;17.23;13.30;;;18.50;99.80;;;;;;5031432;28;20482;-84
2021/09/15 02:38:58;;;;;;;15.50;13.47;;;18.50;99.80;;;;;;5034951;28;20467;-83
2021/09/15 02:41:26;;;;;;;15.63;13.87;;;18.50;99.80;;;;;;5035816;28;20479;-84
2021/09/15 02:43:55;;;;;;;16.30;13.50;;;18.50;99.80;;;;;;5033678;28;20476;-84
2021/09/15 02:46:23;;;;;;;14.70;13.03;;;18.50;99.80;;;;;;5043653;28;21210;-84
2021/09/15 02:48:51;;;;;;;21.70;13.73;;;18.60;99.80;;;;;;5034101;28;20593;-83
2021/09/15 02:51:19;;;;;;;19.43;13.60;;;18.50;99.80;;;;;;5041370;28;20468;-83
2021/09/15 02:53:47;;;;;;;20.20;14.20;;;18.60;99.80;;;;;;5041236;28;20487;-83
2021/09/15 02:56:15;;;;;;;17.70;13.40;;;18.60;99.80;;;;;;5042859;28;20831;-84
2021/09/15 02:58:43;;;;;;;14.03;12.47;;;18.50;99.80;;;;;;5029114;28;20468;-84
2021/09/15 03:01:12;;;;;;;17.00;13.23;;;18.50;99.80;;;;;;5043601;28;20824;-83
2021/09/15 03:03:40;;;;;;;15.67;13.20;;;18.60;99.80;;;;;;5049309;28;20475;-83
2021/09/15 03:06:09;;;;;;;13.87;12.47;;;18.50;99.80;;;;;;5043329;28;20490;-83
2021/09/15 03:08:37;;;;;;;17.43;13.07;;;18.50;99.80;;;;;;5039604;28;20992;-83
2021/09/15 03:11:05;;;;;;;14.73;12.63;;;18.60;99.80;;;;;;5044057;28;21068;-83
2021/09/15 03:13:33;;;;;;;18.40;12.97;;;18.60;99.80;;;;;;5042998;28;20475;-83
2021/09/15 03:16:01;;;;;;;16.17;13.10;;;18.60;99.80;;;;;;5038050;28;20480;-83
2021/09/15 03:18:30;;;;;;;17.13;13.40;;;18.60;99.80;;;;;;5038012;28;20838;-83
2021/09/15 03:21:00;;;;;;;17.93;14.63;;;18.50;99.80;;;;;;5045969;28;20471;-83
2021/09/15 03:23:28;;;;;;;17.90;15.03;;;18.50;99.80;;;;;;5037801;28;20486;-84
2021/09/15 03:25:56;;;;;;;16.70;13.30;;;18.50;99.80;;;;;;5027603;28;20479;-83
2021/09/15 03:28:24;;;;;;;15.80;13.80;;;18.40;99.80;;;;;;5040392;28;20478;-83
2021/09/15 03:30:52;;;;;;;15.37;13.80;;;18.40;99.80;;;;;;5034594;28;20495;-84
2021/09/15 03:33:19;;;;;;;19.60;14.43;;;18.40;99.80;;;;;;5032875;28;20468;-83
2021/09/15 03:35:49;;;;;;;19.87;14.87;;;18.30;99.80;;;;;;5037747;28;20475;-83
2021/09/15 03:38:17;;;;;;;16.87;13.30;;;18.40;99.80;;;;;;5031626;28;20466;-83
2021/09/15 03:40:45;;;;;;;14.63;12.97;;;18.30;99.80;;;;;;5034152;28;20460;-84
2021/09/15 03:43:13;;;;;;;18.70;14.67;;;18.30;99.80;;;;;;5035877;28;20483;-83
2021/09/15 03:45:41;;;;;;;26.63;14.97;;;18.30;99.80;;;;;;5037804;28;20459;-84
2021/09/15 03:48:11;;;;;;;16.17;13.07;;;18.30;99.80;;;;;;5033136;28;20932;-83
2021/09/15 03:50:39;;;;;;;17.57;13.80;;;18.30;99.80;;;;;;5039263;28;20488;-84
2021/09/15 03:53:08;;;;;;;21.77;14.67;;;18.30;99.80;;;;;;5042417;28;20501;-83
2021/09/15 03:55:36;;;;;;;17.20;15.20;;;18.40;99.80;;;;;;5038316;28;20474;-83
2021/09/15 03:58:05;;;;;;;14.87;13.27;;;;;;;;;;5039221;28;21020;-83
2021/09/15 04:00:32;;;;;;;17.40;13.97;;;18.40;99.80;;;;;;5028333;28;20478;-83
2021/09/15 04:03:01;;;;;;;17.30;14.20;;;18.40;99.80;;;;;;5049376;28;21225;-83
2021/09/15 04:05:28;;;;;;;17.67;13.90;;;18.40;99.80;;;;;;5035244;28;20480;-83
2021/09/15 04:07:58;;;;;;;15.60;13.60;;;18.40;99.80;;;;;;5028273;28;20534;-83
2021/09/15 04:10:27;;;;;;;18.60;14.30;;;18.40;99.80;;;;;;5038732;28;20468;-83
2021/09/15 04:12:55;;;;;;;16.87;14.60;;;18.40;99.80;;;;;;5034449;28;20466;-83
2021/09/15 04:15:23;;;;;;;16.20;14.17;;;18.50;99.80;;;;;;5033839;28;21133;-84
2021/09/15 04:17:51;;;;;;;17.47;14.37;;;18.40;99.80;;;;;;5034664;28;20577;-83
2021/09/15 04:20:19;;;;;;;17.00;14.77;;;18.50;99.80;;;;;;5053657;28;20466;-83
2021/09/15 04:22:48;;;;;;;19.20;15.50;;;18.40;99.80;;;;;;5037355;28;20482;-83
2021/09/15 04:33:34;;;;;;;17.23;13.87;;;18.50;99.80;;;;;;5040732;28;20476;-83
2021/09/15 04:36:02;;;;;;;17.70;14.37;;;18.50;99.80;;;;;;5044850;28;20470;-83
2021/09/15 04:38:30;;;;;;;18.33;13.90;;;18.50;99.80;;;;;;5036055;28;20468;-83
2021/09/15 04:40:58;;;;;;;17.43;13.90;;;18.50;99.80;;;;;;5037818;28;20475;-83
2021/09/15 04:43:27;;;;;;;18.57;14.70;;;18.50;99.80;;;;;;5041454;28;20502;-83
2021/09/15 04:45:56;;;;;;;18.17;14.83;;;18.50;99.80;;;;;;5031990;28;20476;-82
2021/09/15 04:48:24;;;;;;;17.50;13.73;;;;;;;;;;5039349;28;20468;-83
2021/09/15 04:50:52;;;;;;;20.00;15.43;;;18.50;99.80;;;;;;5045226;28;20997;-83
2021/09/15 04:53:21;;;;;;;21.57;14.90;;;18.50;99.80;;;;;;5043551;28;20487;-82
2021/09/15 04:55:49;;;;;;;17.53;15.07;;;18.50;99.80;;;;;;5039435;28;20516;-83
2021/09/15 04:58:17;;;;;;;28.00;14.93;;;;;;;;;;5029616;28;20473;-83
2021/09/15 05:00:46;;;;;;;18.80;15.90;;;18.50;99.80;;;;;;5037536;28;20501;-83
2021/09/15 05:03:14;;;;;;;17.00;14.87;;;18.50;99.80;;;;;;5041704;28;20493;-83
2021/09/15 05:05:43;;;;;;;21.90;15.40;;;18.60;99.80;;;;;;5041451;28;20475;-83
2021/09/15 05:08:14;;;;;;;27.63;16.00;;;;;;;;;;5035332;28;20852;-83
2021/09/15 05:10:42;;;;;;;20.03;16.50;;;18.60;99.80;;;;;;5034296;28;20475;-83
2021/09/15 05:13:10;;;;;;;22.00;16.50;;;18.60;99.80;;;;;;5032958;28;20491;-83
2021/09/15 05:15:38;;;;;;;22.73;15.83;;;;;;;;;;5036752;28;20475;-83
2021/09/15 05:18:08;;;;;;;19.27;14.70;;;18.60;99.80;;;;;;5038720;28;20467;-83
2021/09/15 05:20:36;;;;;;;18.23;14.93;;;;;;;;;;5033866;28;20464;-83
2021/09/15 05:23:04;;;;;;;23.77;15.70;;;18.60;99.80;;;;;;5029267;28;20999;-83
2021/09/15 05:25:32;;;;;;;16.50;14.03;;;18.60;99.80;;;;;;5024220;28;20460;-83
2021/09/15 05:28:01;;;;;;;18.60;15.10;;;;;;;;;;5029664;28;20459;-85
2021/09/15 05:30:29;;;;;;;18.53;13.60;;;;;;;;;;5032710;28;20478;-83
2021/09/15 05:32:57;;;;;;;20.37;16.70;;;18.60;99.80;;;;;;5033472;28;20480;-82
2021/09/15 05:35:29;;;;;;;17.30;15.10;;;18.60;99.80;;;;;;5056873;28;21012;-84
2021/09/15 05:37:57;;;;;;;20.83;15.27;;;;;;;;;;5037409;28;20466;-83
2021/09/15 05:40:25;;;;;;;20.00;15.63;;;18.60;99.80;;;;;;5035874;28;20470;-86
2021/09/15 05:42:53;;;;;;;19.07;16.07;;;;;;;;;;5032145;28;20468;-85
2021/09/15 05:45:21;;;;;;;21.33;17.20;;;18.60;99.80;;;;;;5034342;28;20463;-84
2021/09/15 05:47:50;;;;;;;22.50;16.87;;;;;;;;;;5033781;28;20475;-84
2021/09/15 05:50:18;;;;;;;24.60;15.90;;;;;;;;;;5029166;28;20477;-86
2021/09/15 05:52:48;;;;;;;17.67;15.10;;;18.70;99.80;;;;;;5034042;28;20466;-85
2021/09/15 05:55:16;;;;;;;21.37;14.87;;;18.70;99.80;;;;;;5029194;28;21025;-85
2021/09/15 05:57:44;;;;;;;21.17;15.97;;;;;;;;;;5034680;28;20464;-85
2021/09/15 06:00:13;;;;;;;21.87;14.77;;;18.70;99.80;;;;;;5037051;28;20541;-86
2021/09/15 06:02:57;;;;;;;26.10;14.80;;;18.80;99.80;;;;;;5041468;28;20539;-85
2021/09/15 06:05:25;;;;;;;17.53;15.33;;;;;;;;;;5049196;28;20470;-85
2021/09/15 06:07:54;;;;;;;17.80;15.07;;;18.80;99.80;;;;;;5045555;28;20471;-85
2021/09/15 06:10:22;;;;;;;20.40;15.70;;;;;;;;;;5048940;28;20546;-85
2021/09/15 06:12:52;;;;;;;22.07;16.20;;;18.90;99.80;;;;;;5032276;28;20520;-85
2021/09/15 06:15:21;;;;;;;20.13;15.80;;;;;;;;;;5036290;28;20463;-85
2021/09/15 06:17:49;;;;;;;18.97;15.03;;;19.00;99.80;;;;;;5037160;28;20566;-85
2021/09/15 06:20:17;;;;;;;21.77;15.50;;;;;;;;;;5043562;28;20471;-85
2021/09/15 06:22:45;;;;;;;17.67;15.23;;;;;;;;;;5033831;28;20883;-85
2021/09/15 06:25:15;;;;;;;16.90;13.97;;;19.10;99.80;;;;;;5041526;28;20456;-85
2021/09/15 06:27:43;;;;;;;22.30;15.03;;;;;;;;;;5027207;28;20471;-84
2021/09/15 06:30:12;;;;;;;18.80;15.40;;;19.20;99.80;;;;;;5040953;28;20475;-85
2021/09/15 06:32:40;;;;;;;19.03;15.77;;;;;;;;;;5041542;28;20841;-84
2021/09/15 06:35:11;;;;;;;18.23;15.40;;;19.30;99.80;;;;;;5045074;28;20472;-84
2021/09/15 06:37:39;;;;;;;18.03;15.00;;;19.30;99.80;;;;;;5039140;28;20924;-84
2021/09/15 06:40:08;;;;;;;18.20;15.13;;;19.30;99.80;;;;;;5047290;28;20489;-85
2021/09/15 06:42:38;;;;;;;23.23;16.33;;;19.30;99.80;;;;;;5045906;28;20479;-84
2021/09/15 06:45:07;;;;;;;18.80;15.47;;;19.30;99.80;;;;;;5044065;28;20848;-84
2021/09/15 06:47:41;;;;;;;18.30;14.57;;;19.30;99.80;;;;;;5032985;28;20891;-84
2021/09/15 06:50:10;;;;;;;15.90;13.30;;;19.30;99.80;;;;;;5055714;28;20475;-84
2021/09/15 06:52:38;;;;;;;18.97;15.20;;;19.30;99.80;;;;;;5048838;28;20899;-84
2021/09/15 06:55:08;;;;;;;19.23;14.90;;;19.30;99.80;;;;;;5036803;28;20985;-84
2021/09/15 06:57:37;;;;;;;22.17;14.63;;;19.30;99.80;;;;;;5056577;28;21089;-83
2021/09/15 07:00:08;;;;;;;17.73;14.70;;;19.30;99.80;;;;;;5046479;28;20517;-85
2021/09/15 07:02:36;;;;;;;21.93;15.30;;;;;;;;;;5042035;28;20467;-85
2021/09/15 07:05:05;;;;;;;17.83;14.53;;;19.30;99.80;;;;;;5039686;28;20478;-85
2021/09/15 07:07:33;;;;;;;20.57;16.60;;;;;;;;;;5037125;28;20486;-85
2021/09/15 07:10:03;;;;;;;20.27;15.60;;;19.30;99.80;;;;;;5037081;28;20472;-85
2021/09/15 07:12:31;;;;;;;23.30;15.70;;;19.30;99.80;;;;;;5036066;28;20470;-85
2021/09/15 07:15:00;;;;;;;24.37;17.00;;;19.40;99.80;;;;;;5033933;28;20475;-86
2021/09/15 07:17:29;;;;;;;27.00;17.70;;;;;;;;;;5028368;28;20459;-85
2021/09/15 07:19:57;;;;;;;20.93;16.73;;;;;;;;;;5050888;28;20509;-85
2021/09/15 07:22:25;;;;;;;21.63;16.93;;;19.40;99.80;;;;;;5045636;28;20478;-84
2021/09/15 07:24:53;;;;;;;23.73;18.33;;;19.40;99.80;;;;;;5044233;28;20479;-85
2021/09/15 07:27:22;;;;;;;22.53;17.20;;;;;;;;;;5044152;28;20486;-82
2021/09/15 07:29:50;;;;;;;24.63;18.07;;;19.50;99.80;;;;;;5035393;28;22358;-80
2021/09/15 07:32:27;;;;;;;20.73;16.63;;;19.50;99.80;;;;;;5037279;28;20624;-80
2021/09/15 07:34:55;;;;;;;22.87;17.47;;;19.60;99.80;;;;;;5039120;28;21015;-80
2021/09/15 07:37:24;;;;;;;27.03;17.97;;;19.70;99.80;;;;;;5031606;28;20542;-81
2021/09/15 07:39:53;;;;;;;22.00;16.97;;;19.70;99.80;;;;;;5039511;28;20459;-81
2021/09/15 07:42:21;;;;;;;18.40;15.43;;;;;;;;;;5039379;28;20475;-81
2021/09/15 07:44:49;;;;;;;22.50;15.60;;;19.70;99.80;;;;;;5036210;28;20483;-81
2021/09/15 07:47:18;;;;;;;20.23;14.63;;;;;;;;;;5034690;28;20475;-81
2021/09/15 07:49:49;;;;;;;19.57;14.80;;;19.70;99.80;;;;;;5043209;28;20477;-81
2021/09/15 07:52:19;;;;;;;19.73;14.70;;;19.70;99.80;;;;;;5039745;28;20484;-82
2021/09/15 07:54:47;;;;;;;15.23;13.00;;;;;;;;;;5042421;28;20468;-82
2021/09/15 07:57:16;;;;;;;15.57;12.60;;;;;;;;;;5036032;28;20845;-83
2021/09/15 07:59:44;;;;;;;15.07;12.57;;;;;;;;;;5032341;28;20969;-82
2021/09/15 08:02:12;;;;;;;19.27;14.40;;;19.70;99.80;;;;;;5032183;28;20586;-83
2021/09/15 08:04:40;;;;;;;18.33;13.73;;;19.70;99.80;;;;;;5041058;28;20480;-82
2021/09/15 08:07:10;;;;;;;25.50;16.20;;;19.70;99.80;;;;;;5049668;28;20461;-82
2021/09/15 08:09:38;;;;;;;19.73;15.80;;;19.70;99.80;;;;;;5031397;28;20555;-82
2021/09/15 08:12:06;;;;;;;20.03;16.10;;;19.70;99.80;;;;;;5024439;28;20854;-82
2021/09/15 08:14:34;;;;;;;20.43;14.60;;;19.70;99.80;;;;;;5026706;28;20470;-83
2021/09/15 08:17:02;;;;;;;20.73;15.53;;;19.70;99.80;;;;;;5038842;28;21072;-81
2021/09/15 08:19:30;;;;;;;18.37;14.70;;;19.70;99.80;;;;;;5043997;28;20879;-81
2021/09/15 08:21:58;;;;;;;20.00;14.90;;;19.70;99.80;;;;;;5040672;28;20985;-81
2021/09/15 08:24:28;;;;;;;17.80;15.43;;;19.80;99.80;;;;;;5038974;28;20472;-80
2021/09/15 08:26:56;;;;;;;22.47;14.90;;;19.80;99.80;;;;;;5039086;28;20480;-81
2021/09/15 08:29:24;;;;;;;20.20;14.40;;;;;;;;;;5038872;28;20553;-81
2021/09/15 08:31:52;;;;;;;16.83;13.20;;;19.80;99.80;;;;;;5044810;28;20459;-80
2021/09/15 08:34:20;;;;;;;15.60;12.60;;;19.70;99.80;;;;;;5045220;28;20468;-81
2021/09/15 08:36:48;;;;;;;15.37;13.77;;;;;;;;;;5045807;28;20900;-81
2021/09/15 08:39:17;;;;;;;21.07;13.00;;;;;;;;;;5038707;28;20478;-80
2021/09/15 08:41:48;;;;;;;19.10;13.17;;;19.80;99.80;;;;;;5032863;28;20456;-81
2021/09/15 08:44:16;;;;;;;16.37;13.20;;;19.90;99.80;;;;;;5036604;28;20559;-81
2021/09/15 08:46:47;;;;;;;15.43;12.87;;;20.00;99.80;;;;;;5043247;28;20479;-81
2021/09/15 08:49:17;;;;;;;16.23;13.60;;;20.10;99.80;;;;;;5039811;28;20464;-82
2021/09/15 08:51:46;;;;;;;17.20;13.37;;;;;;;;;;5042857;28;20703;-81
2021/09/15 08:54:14;;;;;;;16.13;11.67;;;;;;;;;;5033781;28;20490;-81
2021/09/15 08:56:42;;;;;;;15.63;11.20;;;20.40;99.80;;;;;;5042417;28;21039;-80
2021/09/15 08:59:12;;;;;;;14.80;12.57;;;20.40;99.80;;;;;;5033208;28;20475;-80
2021/09/15 09:01:44;;;;;;;13.63;11.50;;;;;;;;;;5019794;28;20456;-81
2021/09/15 09:04:14;;;;;;;14.90;12.90;;;20.60;99.80;;;;;;5037477;28;20510;-80
2021/09/15 09:06:46;;;;;;;16.73;12.80;;;20.70;99.80;;;;;;5044194;28;20842;-80
2021/09/15 09:09:15;;;;;;;13.50;11.73;;;;;;;;;;5037037;28;21013;-82
2021/09/15 09:11:47;;;;;;;16.10;12.70;;;20.90;99.80;;;;;;5032400;28;20533;-80
2021/09/15 09:14:18;;;;;;;18.67;13.60;;;21.00;99.80;;;;;;5031661;28;20557;-81
2021/09/15 09:16:48;;;;;;;17.47;11.67;;;21.10;99.80;;;;;;5034925;28;21001;-81
2021/09/15 09:19:17;;;;;;;15.20;13.10;;;21.10;99.80;;;;;;5036293;28;20475;-83
2021/09/15 09:21:48;;;;;;;16.33;12.63;;;21.10;99.80;;;;;;5027772;28;20472;-83
2021/09/15 09:24:23;;;;;;;17.80;12.60;;;21.10;99.80;;;;;;5030196;28;20479;-83
2021/09/15 09:26:54;;;;;;;12.97;11.40;;;21.10;99.80;;;;;;5026068;28;20478;-83
2021/09/15 09:29:25;;;;;;;16.60;12.60;;;21.00;99.80;;;;;;5028972;28;20482;-83
2021/09/15 09:32:00;;;;;;;12.70;10.63;;;21.00;99.80;;;;;;5040266;28;21234;-82
2021/09/15 09:34:30;;;;;;;11.80;10.40;;;20.90;99.80;;;;;;5039422;28;20487;-82
2021/09/15 09:37:08;;;;;;;13.27;11.27;;;20.80;99.80;;;;;;5029654;28;20482;-81
2021/09/15 09:39:42;;;;;;;14.30;12.80;;;20.80;99.80;;;;;;5042990;28;20457;-81
2021/09/15 09:42:35;;;;;;;13.70;11.83;;;20.80;99.80;;;;;;5030971;28;20774;-84
2021/09/15 09:45:17;;;;;;;11.83;10.60;;;21.00;99.80;;;;;;5026564;28;20471;-81
2021/09/15 09:47:46;;;;;;;11.90;10.70;;;21.10;99.80;;;;;;5039458;28;20491;-80
2021/09/15 09:50:16;;;;;;;12.70;9.67;;;21.30;99.80;;;;;;5034844;28;20486;-83
2021/09/15 09:52:55;;;;;;;16.77;10.33;;;21.50;99.80;;;;;;5031666;28;20579;-83
2021/09/15 09:55:28;;;;;;;11.40;10.20;;;21.60;99.80;;;;;;5038593;28;20461;-83
2021/09/15 09:57:56;;;;;;;12.40;10.20;;;21.80;99.80;;;;;;5031511;28;20478;-83
2021/09/15 10:00:26;;;;;;;11.77;9.27;;;21.90;99.80;;;;;;5033018;28;20491;-83
2021/09/15 10:02:54;;;;;;;8.77;7.87;;;22.10;99.80;;;;;;5038981;28;20481;-83
2021/09/15 10:05:24;;;;;;;10.40;9.20;;;22.20;99.80;;;;;;5038228;28;20478;-82
2021/09/15 10:07:53;;;;;;;12.10;8.67;;;22.30;99.80;;;;;;5042534;28;21016;-83
2021/09/15 10:10:22;;;;;;;9.73;8.73;;;22.40;99.80;;;;;;5036281;28;20830;-83
2021/09/15 10:12:53;;;;;;;11.60;8.50;;;22.50;99.80;;;;;;5032483;28;20557;-83
2021/09/15 10:15:22;;;;;;;14.87;9.30;;;22.60;99.80;;;;;;5034522;28;20531;-82
2021/09/15 10:17:53;;;;;;;10.17;7.83;;;22.50;99.80;;;;;;5041712;28;20482;-80
2021/09/15 10:20:30;;;;;;;8.90;7.50;;;22.40;99.80;;;;;;5043203;28;20473;-81
2021/09/15 10:22:59;;;;;;;8.87;7.97;;;22.40;99.80;;;;;;5027916;28;20546;-83
2021/09/15 10:25:37;;;;;;;13.40;9.10;;;22.30;99.80;;;;;;5032518;28;20468;-83
2021/09/15 10:28:06;;;;;;;13.50;8.70;;;22.30;99.80;;;;;;5031130;28;20482;-82
2021/09/15 10:30:43;;;;;;;9.53;8.60;;;22.30;99.80;;;;;;5037722;28;20464;-81
2021/09/15 10:33:44;;;;;;;11.30;7.80;;;22.40;99.80;;;;;;5035239;28;20459;-82
2021/09/15 10:36:39;;;;;;;9.90;8.07;;;22.40;99.80;;;;;;5035174;28;20454;-82
2021/09/15 10:39:09;;;;;;;9.97;8.33;;;22.40;99.80;;;;;;5024255;28;20464;-82
2021/09/15 10:41:39;;;;;;;9.20;8.30;;;22.40;99.80;;;;;;5040321;28;20466;-83
2021/09/15 10:44:09;;;;;;;10.80;9.17;;;22.30;99.80;;;;;;5029044;28;20495;-83
2021/09/15 10:46:37;;;;;;;11.30;9.47;;;22.40;99.80;;;;;;5039555;28;20551;-82
2021/09/15 10:49:40;;;;;;;11.63;9.27;;;22.30;99.80;;;;;;5035409;28;20480;-83
2021/09/15 10:52:43;;;;;;;10.03;8.70;;;22.30;99.80;;;;;;5042252;28;20451;-84
2021/09/15 10:55:19;;;;;;;9.87;8.33;;;22.20;99.80;;;;;;5037381;28;20843;-82
2021/09/15 10:57:48;;;;;;;13.43;8.03;;;22.20;99.80;;;;;;5036192;28;21099;-82
2021/09/15 11:00:26;;;;;;;8.03;7.23;;;22.20;99.80;;;;;;5022986;28;20489;-81
2021/09/15 11:02:57;;;;;;;14.73;8.20;;;22.10;99.80;;;;;;5048811;28;20499;-81
2021/09/15 11:05:42;;;;;;;9.00;8.00;;;22.10;99.80;;;;;;5045070;28;20507;-82
2021/09/15 11:08:21;;;;;;;8.20;6.30;;;22.00;99.80;;;;;;5022786;28;20550;-83
2021/09/15 11:10:49;;;;;;;6.97;6.27;;;21.80;99.80;;;;;;5034222;28;20467;-82
2021/09/15 11:13:56;;;;;;;8.43;6.70;;;21.80;99.80;;;;;;5043353;28;20489;-83
2021/09/15 11:16:31;;;;;;;9.00;6.30;;;21.70;99.80;;;;;;5038614;28;20478;-82
2021/09/15 11:19:00;;;;;;;8.80;6.80;;;21.60;99.80;;;;;;5045475;28;20545;-83
2021/09/15 11:21:31;;;;;;;6.97;6.37;;;21.50;99.80;;;;;;5054336;28;20474;-82
2021/09/15 11:24:09;;;;;;;8.87;7.17;;;21.50;99.80;;;;;;5046899;28;20456;-83
2021/09/15 11:26:43;;;;;;;6.80;6.13;;;21.50;99.80;;;;;;5035413;28;20464;-83
2021/09/15 11:29:11;;;;;;;6.77;6.07;;;21.60;99.80;;;;;;5033048;28;20483;-81
2021/09/15 11:31:41;;;;;;;5.90;5.40;;;21.50;99.80;;;;;;5038339;28;20491;-83
2021/09/15 11:34:10;;;;;;;8.87;6.00;;;21.60;99.80;;;;;;5042362;28;20465;-82
2021/09/15 11:36:39;;;;;;;9.40;6.27;;;21.70;99.80;;;;;;5037058;28;20468;-83
2021/09/15 11:39:09;;;;;;;8.20;5.40;;;21.80;99.80;;;;;;5038761;28;20489;-83
2021/09/15 11:41:37;;;;;;;7.10;6.50;;;22.10;99.80;;;;;;5032374;28;20466;-82
2021/09/15 11:44:05;;;;;;;6.30;5.70;;;22.40;99.80;;;;;;5025488;28;20475;-82
2021/09/15 11:46:37;;;;;;;4.53;4.13;;;22.70;99.80;;;;;;5037289;28;20511;-82
2021/09/15 11:49:05;;;;;;;8.50;4.87;;;22.90;99.80;;;;;;5025346;28;20505;-81
2021/09/15 11:51:36;;;;;;;7.67;4.63;;;22.90;99.80;;;;;;5044508;28;20503;-82
2021/09/15 11:54:08;;;;;;;4.83;4.10;;;23.00;99.80;;;;;;5050296;28;20463;-81
2021/09/15 11:56:43;;;;;;;7.10;4.60;;;23.00;99.80;;;;;;5038770;28;20478;-81
2021/09/15 11:59:12;;;;;;;9.90;4.97;;;23.20;99.80;;;;;;5022269;28;20528;-81
2021/09/15 12:02:02;;;;;;;4.83;4.33;;;23.30;99.80;;;;;;5062790;28;20560;-81
2021/09/15 12:04:31;;;;;;;6.83;4.37;;;23.30;99.80;;;;;;5043809;28;20467;-82
2021/09/15 12:07:01;;;;;;;4.67;4.10;;;23.60;99.80;;;;;;5039196;28;20470;-82
2021/09/15 12:09:30;;;;;;;9.20;4.27;;;23.90;99.80;;;;;;5029093;28;20486;-82
2021/09/15 12:12:00;;;;;;;4.67;4.27;;;24.20;99.80;;;;;;5031710;28;21381;-82
2021/09/15 12:14:33;;;;;;;8.30;5.17;;;24.30;99.80;;;;;;5033043;28;20836;-83
2021/09/15 12:17:04;;;;;;;4.83;4.30;;;24.20;99.80;;;;;;5037552;28;20525;-80
2021/09/15 12:19:32;;;;;;;4.57;4.17;;;24.10;99.80;;;;;;5055664;28;21024;-82
2021/09/15 12:22:01;;;;;;;6.43;4.20;;;24.00;99.80;;;;;;5052483;28;20467;-81
2021/09/15 12:24:29;;;;;;;4.60;4.20;;;;;;;;;;5047900;28;20467;-82
2021/09/15 12:27:14;;;;;;;4.47;4.00;;;23.60;99.80;;;;;;5039766;28;21203;-82
2021/09/15 12:29:42;;;;;;;4.43;4.03;;;23.40;99.80;;;;;;5035141;28;20973;-82
2021/09/15 12:32:10;;;;;;;4.57;4.17;;;23.30;99.80;;;;;;5034138;28;20553;-82
2021/09/15 12:34:43;;;;;;;5.53;4.50;;;23.30;99.80;;;;;;5048521;28;20471;-82
2021/09/15 12:37:13;;;;;;;8.60;4.20;;;23.20;99.80;;;;;;5040083;28;20476;-82
2021/09/15 12:39:50;;;;;;;4.90;4.50;;;23.10;99.80;;;;;;5037740;28;20475;-82
2021/09/15 12:42:23;;;;;;;5.60;4.60;;;23.00;99.80;;;;;;5033508;28;20475;-81
2021/09/15 12:45:03;;;;;;;5.87;4.70;;;22.70;99.80;;;;;;5035434;28;20913;-82
2021/09/15 12:47:39;;;;;;;5.10;4.63;;;22.40;99.80;;;;;;5037201;28;20486;-82
2021/09/15 12:50:16;;;;;;;5.83;5.23;;;22.20;99.80;;;;;;5039208;28;20674;-82
2021/09/15 12:52:47;;;;;;;6.00;5.40;;;22.20;99.80;;;;;;5038644;28;20538;-83
2021/09/15 12:55:22;;;;;;;5.40;4.90;;;22.20;99.80;;;;;;5030464;28;20485;-83
2021/09/15 12:58:00;;;;;;;6.10;5.50;;;22.30;99.80;;;;;;5036912;28;21012;-83
2021/09/15 13:00:32;;;;;;;5.37;4.87;;;22.40;99.80;;;;;;5041225;28;20850;-83
2021/09/15 13:03:03;;;;;;;5.47;5.07;;;22.50;99.80;;;;;;5042996;28;20476;-82
2021/09/15 13:05:34;;;;;;;5.77;5.00;;;22.60;99.80;;;;;;5038467;28;20522;-82